Metar Cercanos

 

LEPA - Palma De Mallorc, Spain
Distance from station: ONO 38km
Actualización: 16/10/2018 11:30
Few Clouds
Few Clouds
 Viento del ENE
Viento: ENE 17 km/h
Temperatura: 22°C
Rocío: 16°C
Humedad: 69%
Barómetro: 1014 hPa
Clouds: Few Clouds
Visibility: 10 km
Cloud details: Few Clouds 610 m
2018/10/16 09:30 LEPA 160930Z 07009KT 9999 FEW020 22/16 Q1014 NOSIG
LEMH - Mahon/Menorca Is, Spain
Distance from station: ENE 105km
Actualización: 16/10/2018 11:30
Few Clouds
Few Clouds
 Viento del calm
Viento: Calma
Temperatura: 20°C
Rocío: 14°C
Humedad: 69%
Barómetro: 1014 hPa
Clouds: Few Clouds
Visibility: 10 km
Cloud details: Few Clouds 488 m
2018/10/16 09:30 LEMH 160930Z 00000KT 9999 FEW016 20/14 Q1014
 
LEIB - Ibiza/Es Codola, Spain
Distance from station: OSO 165km
Actualización: 16/10/2018 11:30
Parcialmente nuboso
Parcialmente nuboso
 Viento del E
Viento: E 11 km/h
Temperatura: 22°C
Rocío: 15°C
Humedad: 65%
Barómetro: 1013 hPa
Clouds: Parcialmente nuboso
Visibility: 10 km
Cloud details: Few Clouds 762 m
Few Clouds 823 m
Parcialmente nuboso 1036 m
2018/10/16 09:30 LEIB 160930Z 10006KT 060V140 9999 FEW025TCU FEW027 SCT034 22/15 Q1013 NOSIG
LEBL - Barcelona Airpor, Spain
Distance from station: NNO 225km
Actualización: 16/10/2018 11:30
Despejado
Despejado
 Viento del NO
Viento: NO 9 km/h
Temperatura: 20°C
Rocío: 13°C
Humedad: 64%
Barómetro: 1015 hPa
Resumen: Despejado
Visibility: greater than 10 km
2018/10/16 09:30 LEBL 160930Z 31005KT 240V010 CAVOK 20/13 Q1015 NOSIG
 
LEVC - Valencia (civ/Mi, Spain
Distance from station: NO 188km
Actualización: 16/10/2018 11:30
Few Clouds
Few Clouds
 Viento del NO
Viento: NO 6 km/h
Temperatura: 21°C
Rocío: 13°C
Humedad: 60%
Barómetro: 1014 hPa
Clouds: Few Clouds
Visibility: 10 km
Cloud details: Few Clouds 762 m
2018/10/16 09:30 LEVC 160930Z 31003KT 250V020 9999 FEW025 21/13 Q1014 NOSIG
LEGE - Gerona/Costa Bra, Spain
Distance from station: N 276km
Actualización: 16/10/2018 11:30
Parcialmente nuboso
Parcialmente nuboso
 Viento del NNE
Viento: NNE 13 km/h
Temperatura: 19°C
Rocío: 16°C
Humedad: 83%
Barómetro: 1016 hPa
Clouds: Parcialmente nuboso
Visibility: 10 km
Cloud details: Parcialmente nuboso 762 m
2018/10/16 09:30 LEGE 160930Z 03007KT 350V070 9999 SCT025 19/16 Q1016
 
LEAL - Alicante/El Alte, Spain
Distance from station: OSO 344km
Actualización: 16/10/2018 11:30
Muy nuboso
Muy nuboso
 Viento del N
Viento: N 4 km/h
Temperatura: 21°C
Rocío: 11°C
Humedad: 53%
Barómetro: 1013 hPa
Clouds: Muy nuboso
Visibility: 10 km
Cloud details: Few Clouds 610 m
Parcialmente nuboso 1463 m
Muy nuboso 1707 m
2018/10/16 09:30 LEAL 160930Z 35002KT 9999 FEW020TCU SCT048 BKN056 21/11 Q1013 TEMPO 4000 SHRA
LEAM - Almeria Airport, Spain
Distance from station: SSO 56km
Actualización: 16/10/2018 11:30
Parcialmente nuboso
Parcialmente nuboso
 Viento del varies
Viento: varies 2 km/h
Temperatura: 19°C
Rocío: 15°C
Humedad: 78%
Barómetro: 1012 hPa
Clouds: Parcialmente nuboso
Visibility: 10 km
Cloud details: Few Clouds 914 m
Parcialmente nuboso 2438 m
2018/10/16 09:30 LEAM 160930Z VRB01KT 9999 FEW030 SCT080 19/15 Q1012
 
LEZG - Zaragoza (mil/Ci, Spain
Distance from station: NO 431km
Actualización: 16/10/2018 11:30
Despejado
Despejado
 Viento del NO
Viento: NO 9 km/h
Temperatura: 16°C
Rocío: 11°C
Humedad: 72%
Barómetro: 1017 hPa
Resumen: Despejado
Visibility: greater than 10 km
2018/10/16 09:30 LEZG 160930Z 32005KT 280V350 CAVOK 16/11 Q1017
LEMD - Madrid/Barajas, Spain
Distance from station: ONO 234km
Actualización: 16/10/2018 11:30
Despejado
Despejado
 Viento del NNE
Viento: NNE 9 km/h
Temperatura: 15°C
Rocío: 10°C
Humedad: 72%
Barómetro: 1016 hPa
Resumen: Despejado
Visibility: greater than 10 km
2018/10/16 09:30 LEMD 160930Z 02005KT 350V070 CAVOK 15/10 Q1016 NOSIG
 
LEGR - Granada Airport, Spain
Distance from station: OSO 62km
Actualización: 16/10/2018 11:30
Muy nuboso
Muy nuboso
 Viento del calm
Viento: Calma
Temperatura: 16°C
Rocío: 13°C
Humedad: 83%
Barómetro: 1014 hPa
Clouds: Muy nuboso
Visibility: 10 km
Cloud details: Few Clouds 305 m
Muy nuboso 762 m
2018/10/16 09:30 LEGR 160930Z 00000KT 9999 FEW010 BKN025 16/13 Q1014
LEMG - Malaga (civ/Mil), Spain
Distance from station: OSO 227km
Actualización: 16/10/2018 11:30
Parcialmente nuboso
Parcialmente nuboso
 Viento del ONO
Viento: ONO 28 km/h
Temperatura: 20°C
Rocío: 14°C
Humedad: 69%
Barómetro: 1012 hPa
Clouds: Parcialmente nuboso
Visibility: 10 km
Cloud details: Few Clouds 610 m
Parcialmente nuboso 1524 m
2018/10/16 09:30 LEMG 160930Z 29015KT 9999 FEW020 SCT050 20/14 Q1012 NOSIG
 
LEZL - Sevilla (civ/Mil, Spain
Distance from station: S 318km
Actualización: 16/10/2018 11:30
Muy nuboso
Muy nuboso
 Viento del NNE
Viento: NNE 7 km/h
Temperatura: 18°C
Rocío: 15°C
Humedad: 83%
Barómetro: 1014 hPa
Clouds: Muy nuboso
Visibility: 10 km
Cloud details: Parcialmente nuboso 305 m
Muy nuboso 1067 m
2018/10/16 09:30 LEZL 160930Z 03004KT 360V070 9999 SCT010 BKN035 18/15 Q1014 NOSIG
LEVT - Vitoria, Spain
Distance from station: NO 226km
Actualización: 16/10/2018 11:30
Cubierto
Cubierto
 Viento del varies
Viento: varies 4 km/h
Temperatura: 12°C
Rocío: 10°C
Humedad: 88%
Barómetro: 1018 hPa
Clouds: Cubierto
Visibility: 10 km
Cloud details: Cubierto 366 m
2018/10/16 09:30 LEVT 160930Z VRB02KT 9999 OVC012 12/10 Q1018
 
LEBB - Bilbao/Sondica, Spain
Distance from station: NNO 235km
Actualización: 16/10/2018 11:30
Muy nuboso
Muy nuboso
 Viento del varies
Viento: varies 2 km/h
Temperatura: 17°C
Rocío: 13°C
Humedad: 77%
Barómetro: 1017 hPa
Clouds: Muy nuboso
Visibility: 10 km
Cloud details: Few Clouds 610 m
Muy nuboso 1097 m
2018/10/16 09:30 LEBB 160930Z VRB01KT 9999 FEW020 BKN036 17/13 Q1017 NOSIG
LESO - San Sebastian/Fu, Spain
Distance from station: N 231km
Actualización: 16/10/2018 11:30
Parcialmente nuboso
Parcialmente nuboso
 Viento del varies
Viento: varies 2 km/h
Temperatura: 18°C
Rocío: 14°C
Humedad: 78%
Barómetro: 1017 hPa
Clouds: Parcialmente nuboso
Visibility: 10 km
Cloud details: Few Clouds 335 m
Parcialmente nuboso 579 m
2018/10/16 09:30 LESO 160930Z VRB01KT 9999 FEW011 SCT019 18/14 Q1017
 
LEVD - Valladolid(Mil/C, Spain
Distance from station: ONO 239km
Actualización: 16/10/2018 11:30
Muy nuboso
Muy nuboso
 Viento del NE
Viento: NE 4 km/h
Temperatura: 13°C
Rocío: 9°C
Humedad: 77%
Barómetro: 1018 hPa
Clouds: Muy nuboso
Visibility: 10 km
Cloud details: Muy nuboso 488 m
2018/10/16 09:30 LEVD 160930Z 04002KT 9999 BKN016 13/09 Q1018
LESA - Salamanca (civ/M, Spain
Distance from station: ONO 349km
Actualización: 16/10/2018 11:30
Cubierto
Cubierto
 Viento del NNE
Viento: NNE 13 km/h
Temperatura: 11°C
Rocío: 9°C
Humedad: 88%
Barómetro: 1018 hPa
Clouds: Cubierto
Visibility: 10 km
Cloud details: Cubierto 244 m
2018/10/16 09:30 LESA 160930Z 03007KT 9999 OVC008 11/09 Q1018
 
LEXJ - Santander/Paraya, Spain
Distance from station: NNO 247km
Actualización: 16/10/2018 11:30
Parcialmente nuboso
Parcialmente nuboso
 Viento del OSO
Viento: OSO 2 km/h
Temperatura: 17°C
Rocío: 12°C
Humedad: 73%
Barómetro: 1017 hPa
Clouds: Parcialmente nuboso
Visibility: 10 km
Cloud details: Parcialmente nuboso 1311 m
2018/10/16 09:30 LEXJ 160930Z 24001KT 9999 SCT043 17/12 Q1017
LEAS - Asturias/Aviles, Spain
Distance from station: NO 214km
Actualización: 16/10/2018 11:30
Few Clouds
Few Clouds
 Viento del S
Viento: S 6 km/h
Temperatura: 17°C
Rocío: 11°C
Humedad: 68%
Barómetro: 1017 hPa
Clouds: Few Clouds
Visibility: 10 km
Cloud details: Few Clouds 1219 m
2018/10/16 09:30 LEAS 160930Z 18003KT 120V220 9999 FEW040 17/11 Q1017 NOSIG
 
LECO - La Coruna/Alvedr, Spain
Distance from station: ONO 222km
Actualización: 16/10/2018 11:30
Despejado
Despejado
 Viento del S
Viento: S 7 km/h
Temperatura: 14°C
Rocío: 10°C
Humedad: 77%
Barómetro: 1017 hPa
Resumen: Despejado
Visibility: greater than 10 km
2018/10/16 09:30 LECO 160930Z 17004KT 120V210 CAVOK 14/10 Q1017 NOSIG
LEVX - Vigo/Peinador, Spain
Distance from station: O 214km
Actualización: 16/10/2018 11:30
Patches of fog, Muy nuboso
Patches of fog, Muy nuboso
 Viento del calm
Viento: Calma
Temperatura: 15°C
Rocío: 14°C
Humedad: 94%
Barómetro: 1017 hPa
Resumen: Patches of Fog
Clouds: Muy nuboso
Visibility: 6 km
Cloud details: Muy nuboso 91 m
2018/10/16 09:30 LEVX 160930Z 00000KT 6000 BCFG BKN003 15/14 Q1017 BECMG BKN008